Amoy Dream — VRHD5 — position and weather

sailwx.info

Track history (hours):
 
Tides and Currents Weather Stations Pressure Air Temp Water Temp Dewpoint Dewpoint Depression Visibility Wind Speed Wind Dir Waves Ship Positions

Amoy Dream

Last reported at 2015-Jul-23 22:14 UTC. Time now 2015-Jul-29 00:37 UTC.
Position N 30°26' E 123°03'.

Length 190 m; draft 5.8 m.

Type: Cargo ship. MMSI: 477826600.

Date/timePositionNaut miles runAvg speedWind from/ knotsBaromVisibWave heightAir tempDewpointWater temp
2015-Jul-23 22:14N 30°26' E 123°03'811.5
2015-Jul-23 21:31N 30°34' E 122°60'1211.5
2015-Jul-23 20:27N 30°44' E 122°53'12 5.9
2015-Jul-23 18:21N 30°55' E 122°46'1 1.1
2015-Jul-23 17:18N 30°55' E 122°45'7 7.5
2015-Jul-23 16:18N 30°58' E 122°37'911.9
2015-Jul-23 15:33N 30°60' E 122°27'1110.9
2015-Jul-23 14:34N 31°02' E 122°15'1010.1
2015-Jul-23 13:33N 31°04' E 122°03'1313.0
2015-Jul-23 12:33N 31°11' E 121°50'1313.4
2015-Jul-23 11:33N 31°21' E 121°39'8 8.1
2015-Jul-23 10:33N 31°22' E 121°30'2 1.5
2015-Jul-23 09:30N 31°21' E 121°31'0 0.0
2015-Jul-23 08:30N 31°21' E 121°31'0 0.0
2015-Jul-23 07:24N 31°21' E 121°31'0 0.0
2015-Jul-23 06:33N 31°21' E 121°31'0 0.0
2015-Jul-23 05:30N 31°21' E 121°31'0 0.0
2015-Jul-23 04:30N 31°21' E 121°31'0 0.0
2015-Jul-23 03:30N 31°21' E 121°31'0 0.0
2015-Jul-23 02:33N 31°21' E 121°31'0 0.0
2015-Jul-23 01:33N 31°21' E 121°31'0 0.0
2015-Jul-23 00:33N 31°21' E 121°31'0 0.0
2015-Jul-22 23:30N 31°21' E 121°31'0 0.0
2015-Jul-22 22:30N 31°21' E 121°31'0 0.0
2015-Jul-22 21:30N 31°21' E 121°31'0 0.0
2015-Jul-22 20:30N 31°21' E 121°31'0 0.0
2015-Jul-22 19:33N 31°21' E 121°31'0 0.0
2015-Jul-22 18:33N 31°21' E 121°31'0 0.0
2015-Jul-22 17:30N 31°21' E 121°31'0 0.0
2015-Jul-22 16:33N 31°21' E 121°31'0 0.0
2015-Jul-22 15:33N 31°21' E 121°31'0 0.0
2015-Jul-22 14:33N 31°21' E 121°31'0 0.0
2015-Jul-22 13:24N 31°21' E 121°31'0 0.0
2015-Jul-22 12:33N 31°21' E 121°31'0 0.0
2015-Jul-22 11:30N 31°21' E 121°31'0 0.0
2015-Jul-22 10:33N 31°21' E 121°31'0 0.0
2015-Jul-22 09:30N 31°21' E 121°31'0 0.0
2015-Jul-22 08:30N 31°21' E 121°31'0 0.0
2015-Jul-22 07:30N 31°21' E 121°31'0 0.0
2015-Jul-22 06:33N 31°21' E 121°31'0 0.0
2015-Jul-22 05:33N 31°21' E 121°31'0 0.0
2015-Jul-22 04:33N 31°21' E 121°31'0 0.0
2015-Jul-22 03:33N 31°21' E 121°31'0 0.0
2015-Jul-22 02:33N 31°21' E 121°31'0 0.0
2015-Jul-22 01:30N 31°21' E 121°31'0 0.0
2015-Jul-22 00:30N 31°21' E 121°31'0 0.0
2015-Jul-21 23:33N 31°21' E 121°31'0 0.0
2015-Jul-21 22:30N 31°21' E 121°31'0 0.0
2015-Jul-21 21:33N 31°21' E 121°31'0 0.0
2015-Jul-21 20:30N 31°21' E 121°31'0 0.0
2015-Jul-21 19:33N 31°21' E 121°31'0 0.0
2015-Jul-21 18:24N 31°21' E 121°31'0 0.0
2015-Jul-21 17:33N 31°21' E 121°31'0 0.0
2015-Jul-21 16:33N 31°21' E 121°31'0 0.0
2015-Jul-21 15:33N 31°21' E 121°31'0 0.0
2015-Jul-21 14:33N 31°21' E 121°31'0 0.0
2015-Jul-21 13:33N 31°21' E 121°31'0 0.0
2015-Jul-21 12:30N 31°21' E 121°31'0 0.0
2015-Jul-21 11:33N 31°21' E 121°31'0 0.0
2015-Jul-21 10:33N 31°21' E 121°31'0 0.0
2015-Jul-21 09:33N 31°21' E 121°31'0 0.0
2015-Jul-21 08:33N 31°21' E 121°31'0 0.0
2015-Jul-21 07:30N 31°21' E 121°31'0 0.0
2015-Jul-21 06:30N 31°21' E 121°31'0 0.0
2015-Jul-21 05:33N 31°21' E 121°31'0 0.0
2015-Jul-21 04:33N 31°21' E 121°31'0 0.0
2015-Jul-21 03:33N 31°21' E 121°31'0 0.0
2015-Jul-21 02:33N 31°21' E 121°31'0 0.0
2015-Jul-21 01:33N 31°21' E 121°31'0 0.0
2015-Jul-21 00:33N 31°21' E 121°31'0 0.0
2015-Jul-20 23:33N 31°21' E 121°31'0 0.0
2015-Jul-20 22:33N 31°21' E 121°31'  
2015-Jul-14 06:13N 31°21' E 121°31'0 0.0
2015-Jul-14 05:31N 31°21' E 121°31'0 0.0
2015-Jul-14 04:31N 31°21' E 121°31'0 0.0
2015-Jul-14 03:28N 31°21' E 121°31'0 0.0
2015-Jul-14 02:33N 31°21' E 121°31'0 0.0
2015-Jul-14 01:33N 31°21' E 121°31'0 0.0
2015-Jul-14 00:30N 31°21' E 121°31'0 0.0
2015-Jul-13 23:33N 31°21' E 121°31'0 0.0
2015-Jul-13 22:33N 31°21' E 121°31'  
Track history (hours):
 
Tides and Currents Weather Stations Pressure Air Temp Water Temp Dewpoint Dewpoint Depression Visibility Wind Speed Wind Dir Waves Ship Positions

Amoy Dream

Last reported at 2015-Jul-23 22:14 UTC. Time now 2015-Jul-29 00:37 UTC.
Position N 30°26' E 123°03'.

Length 190 m; draft 5.8 m.

Type: Cargo ship. MMSI: 477826600.

Date/timePositionNaut miles runAvg speedWind from/ knotsBaromVisibWave heightAir tempDewpointWater temp
2015-Jul-23 22:14N 30°26' E 123°03'811.5
2015-Jul-23 21:31N 30°34' E 122°60'1211.5
2015-Jul-23 20:27N 30°44' E 122°53'12 5.9
2015-Jul-23 18:21N 30°55' E 122°46'1 1.1
2015-Jul-23 17:18N 30°55' E 122°45'7 7.5
2015-Jul-23 16:18N 30°58' E 122°37'911.9
2015-Jul-23 15:33N 30°60' E 122°27'1110.9
2015-Jul-23 14:34N 31°02' E 122°15'1010.1
2015-Jul-23 13:33N 31°04' E 122°03'1313.0
2015-Jul-23 12:33N 31°11' E 121°50'1313.4
2015-Jul-23 11:33N 31°21' E 121°39'8 8.1
2015-Jul-23 10:33N 31°22' E 121°30'2 1.5
2015-Jul-23 09:30N 31°21' E 121°31'0 0.0
2015-Jul-23 08:30N 31°21' E 121°31'0 0.0
2015-Jul-23 07:24N 31°21' E 121°31'0 0.0
2015-Jul-23 06:33N 31°21' E 121°31'0 0.0
2015-Jul-23 05:30N 31°21' E 121°31'0 0.0
2015-Jul-23 04:30N 31°21' E 121°31'0 0.0
2015-Jul-23 03:30N 31°21' E 121°31'0 0.0
2015-Jul-23 02:33N 31°21' E 121°31'0 0.0
2015-Jul-23 01:33N 31°21' E 121°31'0 0.0
2015-Jul-23 00:33N 31°21' E 121°31'0 0.0
2015-Jul-22 23:30N 31°21' E 121°31'0 0.0
2015-Jul-22 22:30N 31°21' E 121°31'0 0.0
2015-Jul-22 21:30N 31°21' E 121°31'0 0.0
2015-Jul-22 20:30N 31°21' E 121°31'0 0.0
2015-Jul-22 19:33N 31°21' E 121°31'0 0.0
2015-Jul-22 18:33N 31°21' E 121°31'0 0.0
2015-Jul-22 17:30N 31°21' E 121°31'0 0.0
2015-Jul-22 16:33N 31°21' E 121°31'0 0.0
2015-Jul-22 15:33N 31°21' E 121°31'0 0.0
2015-Jul-22 14:33N 31°21' E 121°31'0 0.0
2015-Jul-22 13:24N 31°21' E 121°31'0 0.0
2015-Jul-22 12:33N 31°21' E 121°31'0 0.0
2015-Jul-22 11:30N 31°21' E 121°31'0 0.0
2015-Jul-22 10:33N 31°21' E 121°31'0 0.0
2015-Jul-22 09:30N 31°21' E 121°31'0 0.0
2015-Jul-22 08:30N 31°21' E 121°31'0 0.0
2015-Jul-22 07:30N 31°21' E 121°31'0 0.0
2015-Jul-22 06:33N 31°21' E 121°31'0 0.0
2015-Jul-22 05:33N 31°21' E 121°31'0 0.0
2015-Jul-22 04:33N 31°21' E 121°31'0 0.0
2015-Jul-22 03:33N 31°21' E 121°31'0 0.0
2015-Jul-22 02:33N 31°21' E 121°31'0 0.0
2015-Jul-22 01:30N 31°21' E 121°31'0 0.0
2015-Jul-22 00:30N 31°21' E 121°31'0 0.0
2015-Jul-21 23:33N 31°21' E 121°31'0 0.0
2015-Jul-21 22:30N 31°21' E 121°31'0 0.0
2015-Jul-21 21:33N 31°21' E 121°31'0 0.0
2015-Jul-21 20:30N 31°21' E 121°31'0 0.0
2015-Jul-21 19:33N 31°21' E 121°31'0 0.0
2015-Jul-21 18:24N 31°21' E 121°31'0 0.0
2015-Jul-21 17:33N 31°21' E 121°31'0 0.0
2015-Jul-21 16:33N 31°21' E 121°31'0 0.0
2015-Jul-21 15:33N 31°21' E 121°31'0 0.0
2015-Jul-21 14:33N 31°21' E 121°31'0 0.0
2015-Jul-21 13:33N 31°21' E 121°31'0 0.0
2015-Jul-21 12:30N 31°21' E 121°31'0 0.0
2015-Jul-21 11:33N 31°21' E 121°31'0 0.0
2015-Jul-21 10:33N 31°21' E 121°31'0 0.0
2015-Jul-21 09:33N 31°21' E 121°31'0 0.0
2015-Jul-21 08:33N 31°21' E 121°31'0 0.0
2015-Jul-21 07:30N 31°21' E 121°31'0 0.0
2015-Jul-21 06:30N 31°21' E 121°31'0 0.0
2015-Jul-21 05:33N 31°21' E 121°31'0 0.0
2015-Jul-21 04:33N 31°21' E 121°31'0 0.0
2015-Jul-21 03:33N 31°21' E 121°31'0 0.0
2015-Jul-21 02:33N 31°21' E 121°31'0 0.0
2015-Jul-21 01:33N 31°21' E 121°31'0 0.0
2015-Jul-21 00:33N 31°21' E 121°31'0 0.0
2015-Jul-20 23:33N 31°21' E 121°31'0 0.0
2015-Jul-20 22:33N 31°21' E 121°31'  
2015-Jul-14 06:13N 31°21' E 121°31'0 0.0
2015-Jul-14 05:31N 31°21' E 121°31'0 0.0
2015-Jul-14 04:31N 31°21' E 121°31'0 0.0
2015-Jul-14 03:28N 31°21' E 121°31'0 0.0
2015-Jul-14 02:33N 31°21' E 121°31'0 0.0
2015-Jul-14 01:33N 31°21' E 121°31'0 0.0
2015-Jul-14 00:30N 31°21' E 121°31'0 0.0
2015-Jul-13 23:33N 31°21' E 121°31'0 0.0
2015-Jul-13 22:33N 31°21' E 121°31'  

Dump ship's entire track history